Time;durP1;ratioP1;P1;durP2;ratioP2;P2;SDS_P1;SDS_P2;PMS_P1;PMS_P2;Temp;Humidity;BMP_temperature;BMP_pressure;BME280_temperature;BME280_humidity;BME280_pressure;Samples;Min_cycle;Max_cycle;Signal;HPM_P1;HPM_P2
2023/07/28 00:00:52;;;;;;;71.68;40.67;;;27.70;99.90;;;;;;5031336;28;20494;-67
2023/07/28 00:03:19;;;;;;;67.57;39.40;;;27.70;99.90;;;;;;5031114;28;20021;-68
2023/07/28 00:05:45;;;;;;;57.85;35.90;;;27.60;99.90;;;;;;5031286;28;20025;-66
2023/07/28 00:08:12;;;;;;;79.05;49.47;;;27.70;99.90;;;;;;5031126;28;20028;-67
2023/07/28 00:10:42;;;;;;;74.63;43.72;;;27.70;99.90;;;;;;5030801;28;20037;-67
2023/07/28 00:13:09;;;;;;;63.33;37.83;;;27.70;99.90;;;;;;5057252;23;20059;-65
2023/07/28 00:15:36;;;;;;;59.88;33.05;;;27.80;99.90;;;;;;5053673;28;20094;-65
2023/07/28 00:18:02;;;;;;;58.00;33.47;;;27.80;99.90;;;;;;5053591;28;20036;-65
2023/07/28 00:20:29;;;;;;;55.80;33.85;;;27.80;99.90;;;;;;5053821;28;20463;-65
2023/07/28 00:22:55;;;;;;;58.88;31.73;;;27.90;99.90;;;;;;5053687;28;20029;-64
2023/07/28 00:25:22;;;;;;;56.83;32.83;;;27.90;99.90;;;;;;5053382;28;20029;-65
2023/07/28 00:27:48;;;;;;;56.85;32.38;;;27.90;99.90;;;;;;5053492;28;20021;-64
2023/07/28 00:30:15;;;;;;;57.28;30.98;;;27.90;99.90;;;;;;5053430;28;20064;-64
2023/07/28 00:32:41;;;;;;;53.22;34.00;;;28.00;99.90;;;;;;5053523;28;20532;-65
2023/07/28 00:35:08;;;;;;;54.40;34.80;;;28.00;99.90;;;;;;5053206;28;20025;-64
2023/07/28 00:37:35;;;;;;;76.35;47.78;;;28.00;99.90;;;;;;5053223;28;20032;-64
2023/07/28 00:40:02;;;;;;;60.83;37.28;;;28.10;99.90;;;;;;5053369;28;20025;-64
2023/07/28 00:42:28;;;;;;;57.83;35.03;;;28.10;99.90;;;;;;5053972;28;20036;-66
2023/07/28 00:44:55;;;;;;;58.92;36.00;;;28.10;99.90;;;;;;5053320;28;20025;-65
2023/07/28 00:47:22;;;;;;;66.63;39.42;;;28.20;99.90;;;;;;5053141;28;20021;-65
2023/07/28 00:49:48;;;;;;;58.42;36.90;;;28.30;99.90;;;;;;5053104;28;20025;-65
2023/07/28 00:52:15;;;;;;;55.67;35.80;;;28.20;99.90;;;;;;5053038;28;20017;-65
2023/07/28 00:54:42;;;;;;;80.25;50.42;;;28.20;99.90;;;;;;5053166;28;20021;-63
2023/07/28 00:57:09;;;;;;;850.03;576.63;;;28.30;99.90;;;;;;5053234;28;20595;-65
2023/07/28 00:59:36;;;;;;;1571.20;874.95;;;28.40;99.90;;;;;;5053061;28;20033;-60
2023/07/28 01:02:02;;;;;;;1761.68;936.17;;;28.50;99.90;;;;;;5053133;28;20021;-61
2023/07/28 01:04:29;;;;;;;844.47;604.83;;;28.60;99.90;;;;;;5053052;28;20510;-64
2023/07/28 01:06:58;;;;;;;1524.43;860.15;;;28.60;99.90;;;;;;5053200;28;20395;-63
2023/07/28 01:09:37;;;;;;;615.38;422.20;;;28.60;99.90;;;;;;5053019;28;20021;-63
2023/07/28 01:12:11;;;;;;;710.67;434.73;;;28.60;99.90;;;;;;5053118;28;20096;-65
2023/07/28 01:14:37;;;;;;;397.00;221.50;;;28.70;99.90;;;;;;5052915;28;20124;-64
2023/07/28 01:17:04;;;;;;;289.67;186.15;;;28.70;99.90;;;;;;5052788;28;20035;-64
2023/07/28 01:19:31;;;;;;;151.05;94.38;;;28.70;99.90;;;;;;5053037;28;20036;-65
2023/07/28 01:22:16;;;;;;;127.53;77.10;;;28.70;99.90;;;;;;5053011;28;20083;-64
2023/07/28 01:25:17;;;;;;;107.97;60.10;;;28.80;99.90;;;;;;5053204;28;20483;-64
2023/07/28 01:27:44;;;;;;;126.18;66.20;;;28.90;99.90;;;;;;4998356;28;20290;-65
2023/07/28 01:30:12;;;;;;;113.88;64.10;;;28.90;99.90;;;;;;5050665;28;20415;-65
2023/07/28 01:32:38;;;;;;;141.63;95.80;;;29.00;99.90;;;;;;5052654;28;20104;-64
2023/07/28 01:35:05;;;;;;;203.13;133.40;;;29.10;99.90;;;;;;5053179;28;20024;-65
2023/07/28 01:37:32;;;;;;;152.57;67.25;;;29.10;99.90;;;;;;5043516;28;20018;-64
2023/07/28 01:39:58;;;;;;;116.85;70.60;;;29.30;99.90;;;;;;5032764;28;20017;-63
2023/07/28 01:42:25;;;;;;;88.40;50.42;;;29.30;99.90;;;;;;5033077;28;20029;-65
2023/07/28 01:44:51;;;;;;;80.82;47.55;;;29.30;99.90;;;;;;5032996;28;20018;-65
2023/07/28 01:47:18;;;;;;;67.93;45.55;;;29.40;99.90;;;;;;5032991;28;20176;-64
2023/07/28 01:49:44;;;;;;;72.63;44.58;;;29.40;99.90;;;;;;5036323;28;20167;-63
2023/07/28 01:52:11;;;;;;;100.55;49.97;;;29.40;99.90;;;;;;5036851;28;20021;-65
2023/07/28 01:54:37;;;;;;;85.18;47.53;;;29.50;99.90;;;;;;5036814;28;20029;-63
2023/07/28 01:57:04;;;;;;;67.97;40.45;;;29.50;99.90;;;;;;5037024;28;20029;-63
2023/07/28 01:59:31;;;;;;;101.47;50.15;;;29.50;99.90;;;;;;5037019;28;20028;-63
2023/07/28 02:01:58;;;;;;;124.97;56.58;;;29.60;99.90;;;;;;5036389;28;20071;-64
2023/07/28 02:04:24;;;;;;;99.00;56.25;;;29.60;99.90;;;;;;5036229;28;20041;-63
2023/07/28 02:06:51;;;;;;;55.10;37.03;;;29.70;99.90;;;;;;5036489;28;20029;-63
2023/07/28 02:09:18;;;;;;;78.85;47.20;;;29.70;99.90;;;;;;5036179;28;20021;-63
2023/07/28 02:11:44;;;;;;;60.55;39.20;;;29.70;99.90;;;;;;5036136;28;20035;-63
2023/07/28 02:14:11;;;;;;;67.40;40.45;;;29.80;99.90;;;;;;5036009;28;20069;-63
2023/07/28 02:16:37;;;;;;;53.50;34.28;;;29.80;99.90;;;;;;5036188;28;20025;-63
2023/07/28 02:19:04;;;;;;;56.88;35.28;;;29.80;99.90;;;;;;5035984;28;20407;-63
2023/07/28 02:21:30;;;;;;;52.78;36.25;;;29.80;99.90;;;;;;5036215;28;20021;-63
2023/07/28 02:23:57;;;;;;;62.15;37.30;;;29.80;99.90;;;;;;5036258;28;20017;-66
2023/07/28 02:26:23;;;;;;;48.05;32.75;;;29.90;99.90;;;;;;5036381;28;20045;-62
2023/07/28 02:28:50;;;;;;;54.70;34.40;;;29.90;99.90;;;;;;5036218;28;20448;-63
2023/07/28 02:31:16;;;;;;;54.08;34.70;;;29.90;99.90;;;;;;5036351;28;20486;-63
2023/07/28 02:33:43;;;;;;;47.90;33.85;;;30.10;99.90;;;;;;5035790;28;20032;-64
2023/07/28 02:36:09;;;;;;;51.28;34.92;;;30.10;99.90;;;;;;5035895;28;20099;-62
2023/07/28 02:38:36;;;;;;;66.90;39.17;;;30.20;99.90;;;;;;5035800;28;20021;-62
2023/07/28 02:41:03;;;;;;;69.00;40.65;;;30.20;99.90;;;;;;5035649;28;20025;-62
2023/07/28 02:43:30;;;;;;;54.85;35.42;;;30.10;99.90;;;;;;5035625;28;20411;-63
2023/07/28 02:45:58;;;;;;;55.33;37.97;;;30.10;99.90;;;;;;5036012;28;20033;-63
2023/07/28 02:48:24;;;;;;;51.22;34.65;;;30.20;99.90;;;;;;5035510;28;20030;-61
2023/07/28 02:50:52;;;;;;;52.63;36.83;;;30.30;99.90;;;;;;5035335;28;20026;-63
2023/07/28 02:53:19;;;;;;;48.88;33.22;;;30.40;99.90;;;;;;5035539;28;20022;-63
2023/07/28 02:55:47;;;;;;;48.28;34.70;;;30.40;99.90;;;;;;5035472;28;20100;-63
2023/07/28 02:58:14;;;;;;;50.05;33.72;;;30.50;99.90;;;;;;5035228;28;20022;-63
2023/07/28 03:00:42;;;;;;;49.33;33.30;;;30.50;99.90;;;;;;5064067;28;20067;-63
2023/07/28 03:03:10;;;;;;;49.63;33.83;;;30.50;99.90;;;;;;5075259;28;20035;-63
2023/07/28 03:05:38;;;;;;;48.00;33.72;;;30.50;99.90;;;;;;5075574;28;20386;-63
2023/07/28 03:08:05;;;;;;;53.50;34.95;;;30.50;99.90;;;;;;5075092;28;20036;-63
2023/07/28 03:10:33;;;;;;;57.30;38.60;;;30.50;99.90;;;;;;5074785;28;20029;-64
2023/07/28 03:12:59;;;;;;;64.80;41.67;;;30.50;99.90;;;;;;5074816;28;20040;-63
2023/07/28 03:15:26;;;;;;;55.65;37.17;;;30.70;99.90;;;;;;5075086;28;20437;-63
2023/07/28 03:17:54;;;;;;;50.83;33.63;;;30.70;99.90;;;;;;5074842;28;20459;-62
2023/07/28 03:20:21;;;;;;;54.05;35.22;;;30.70;99.90;;;;;;5075223;28;20060;-62
2023/07/28 03:22:48;;;;;;;62.53;40.03;;;30.80;99.90;;;;;;5074764;28;20490;-63
2023/07/28 03:25:14;;;;;;;51.33;36.60;;;30.80;99.90;;;;;;5074745;28;20036;-64
2023/07/28 03:27:41;;;;;;;54.35;35.88;;;30.90;99.90;;;;;;5074167;28;20535;-65
2023/07/28 03:30:10;;;;;;;51.47;36.90;;;30.90;99.90;;;;;;5074922;28;20063;-65
2023/07/28 03:32:37;;;;;;;54.63;36.33;;;30.80;99.90;;;;;;5074489;28;20376;-66
2023/07/28 03:35:07;;;;;;;48.78;34.65;;;30.80;99.90;;;;;;5074797;28;20052;-67
2023/07/28 03:37:34;;;;;;;54.03;36.53;;;30.80;99.90;;;;;;5075039;28;20025;-65
2023/07/28 03:40:01;;;;;;;54.72;37.05;;;30.80;99.90;;;;;;5074620;28;20470;-65
2023/07/28 03:42:28;;;;;;;50.83;38.78;;;30.80;99.90;;;;;;5071870;28;20039;-64
2023/07/28 03:44:54;;;;;;;56.70;38.53;;;30.90;99.90;;;;;;5040701;28;20040;-65
2023/07/28 03:47:21;;;;;;;91.65;64.68;;;31.00;99.90;;;;;;5050503;28;20017;-64
2023/07/28 03:49:47;;;;;;;62.55;46.15;;;31.00;99.90;;;;;;5045775;28;20021;-65
2023/07/28 03:52:14;;;;;;;57.00;39.00;;;31.00;99.90;;;;;;5044219;28;20021;-64
2023/07/28 03:54:40;;;;;;;55.03;41.30;;;31.10;99.90;;;;;;5043904;28;20049;-65
2023/07/28 03:57:09;;;;;;;52.38;37.20;;;31.20;99.90;;;;;;5045277;28;20144;-68
2023/07/28 03:59:35;;;;;;;49.30;34.67;;;31.20;99.90;;;;;;5045277;28;20021;-65
2023/07/28 04:02:02;;;;;;;45.00;33.25;;;31.20;99.90;;;;;;5042774;28;20025;-65
2023/07/28 04:04:28;;;;;;;44.50;32.28;;;31.30;99.90;;;;;;5034549;28;20029;-65
2023/07/28 04:06:55;;;;;;;48.50;33.28;;;31.30;99.90;;;;;;5034796;28;20025;-65
2023/07/28 04:09:22;;;;;;;51.25;34.22;;;31.30;99.90;;;;;;5034357;28;20112;-65
2023/07/28 04:11:48;;;;;;;46.30;32.63;;;31.20;99.90;;;;;;5034118;28;20464;-66
2023/07/28 04:14:14;;;;;;;45.58;32.22;;;31.20;99.90;;;;;;5034511;28;20086;-64
2023/07/28 04:16:41;;;;;;;60.17;40.17;;;31.20;99.90;;;;;;5034514;28;20022;-65
2023/07/28 04:19:08;;;;;;;56.47;39.53;;;31.20;99.90;;;;;;5034632;28;20451;-65
2023/07/28 04:21:34;;;;;;;51.05;33.72;;;31.10;99.90;;;;;;5034413;28;20148;-65
2023/07/28 04:24:01;;;;;;;45.65;33.95;;;31.10;99.90;;;;;;5034534;28;20495;-65
2023/07/28 04:26:27;;;;;;;51.63;37.00;;;31.20;99.90;;;;;;5034216;28;20108;-65
2023/07/28 04:28:54;;;;;;;50.75;37.42;;;31.20;99.90;;;;;;5034865;28;20029;-64
2023/07/28 04:31:20;;;;;;;48.50;33.88;;;31.40;99.90;;;;;;5033373;28;20025;-64
2023/07/28 04:33:47;;;;;;;53.97;35.97;;;31.40;99.90;;;;;;5035966;28;20491;-65
2023/07/28 04:36:13;;;;;;;56.88;34.95;;;31.50;99.90;;;;;;5042884;28;20025;-64
2023/07/28 04:38:40;;;;;;;46.35;34.15;;;31.50;99.90;;;;;;5033885;28;20045;-64
2023/07/28 04:41:06;;;;;;;46.78;32.65;;;31.50;99.90;;;;;;5033551;28;20076;-66
2023/07/28 04:43:33;;;;;;;44.22;32.17;;;31.60;99.90;;;;;;5033988;28;20025;-65
2023/07/28 04:45:59;;;;;;;41.70;31.90;;;31.60;99.90;;;;;;5033918;28;20033;-65
2023/07/28 04:48:27;;;;;;;50.28;34.78;;;31.70;99.90;;;;;;5033598;28;20247;-65
2023/07/28 04:50:54;;;;;;;49.65;34.55;;;31.70;99.90;;;;;;5038242;28;20025;-63
2023/07/28 04:53:21;;;;;;;44.13;31.95;;;31.80;99.90;;;;;;5047972;28;20024;-66
2023/07/28 04:55:47;;;;;;;48.50;31.75;;;31.80;99.90;;;;;;5042746;28;20423;-66
2023/07/28 04:58:14;;;;;;;41.90;31.20;;;31.90;99.90;;;;;;5041924;28;20092;-64
2023/07/28 05:00:40;;;;;;;39.95;30.85;;;31.90;99.90;;;;;;5041735;28;20036;-64
2023/07/28 05:03:07;;;;;;;38.65;28.70;;;31.90;99.90;;;;;;5052601;28;20076;-68
2023/07/28 05:05:33;;;;;;;43.47;30.17;;;32.00;99.90;;;;;;5052542;28;20116;-66
2023/07/28 05:08:00;;;;;;;41.33;30.58;;;32.00;99.90;;;;;;5052402;28;20025;-67
2023/07/28 05:10:26;;;;;;;41.80;30.90;;;32.10;99.90;;;;;;5046262;28;20040;-66
2023/07/28 05:12:53;;;;;;;40.53;29.90;;;32.10;99.90;;;;;;5052862;28;20202;-66
2023/07/28 05:15:19;;;;;;;43.42;29.45;;;32.20;99.90;;;;;;5052489;28;20032;-65
2023/07/28 05:17:46;;;;;;;44.08;30.25;;;32.30;99.90;;;;;;5052501;28;20036;-65
2023/07/28 05:20:12;;;;;;;45.22;29.77;;;32.30;99.90;;;;;;5052722;28;20021;-65
2023/07/28 05:22:39;;;;;;;44.35;30.27;;;32.40;99.90;;;;;;5055463;28;20108;-65
2023/07/28 05:25:07;;;;;;;42.67;29.77;;;32.40;99.90;;;;;;5094294;22;20033;-66
2023/07/28 05:27:33;;;;;;;44.70;31.55;;;32.40;99.90;;;;;;5014036;28;20042;-65
2023/07/28 05:30:00;;;;;;;44.28;32.42;;;32.40;99.90;;;;;;5013977;28;20236;-65
2023/07/28 05:32:26;;;;;;;46.30;32.42;;;32.50;99.90;;;;;;5014660;28;20089;-64
2023/07/28 05:34:53;;;;;;;46.33;31.42;;;32.60;99.90;;;;;;5014536;28;20433;-64
2023/07/28 05:37:20;;;;;;;41.95;30.20;;;32.50;99.90;;;;;;5014097;28;20380;-64
2023/07/28 05:39:46;;;;;;;39.20;28.20;;;32.50;99.90;;;;;;5013985;28;20041;-65
2023/07/28 05:42:13;;;;;;;42.97;30.17;;;32.50;99.90;;;;;;5014081;28;20030;-64
2023/07/28 05:44:39;;;;;;;41.17;29.90;;;32.50;99.90;;;;;;5011412;28;20030;-65
2023/07/28 05:47:06;;;;;;;38.58;30.30;;;32.50;99.90;;;;;;5012088;28;20026;-64
2023/07/28 05:49:33;;;;;;;45.05;30.58;;;32.50;99.90;;;;;;5018568;28;20030;-65
2023/07/28 05:51:59;;;;;;;37.05;29.60;;;32.60;99.90;;;;;;5018393;28;20022;-64
2023/07/28 05:54:26;;;;;;;47.53;30.13;;;32.60;99.90;;;;;;5021275;28;20312;-62
2023/07/28 05:56:52;;;;;;;39.42;29.67;;;32.70;99.90;;;;;;5026103;28;20033;-63
2023/07/28 05:59:19;;;;;;;37.97;27.60;;;32.70;99.90;;;;;;5029749;28;20534;-68
2023/07/28 06:01:45;;;;;;;42.95;29.50;;;32.70;99.90;;;;;;5023298;28;20049;-64
2023/07/28 06:04:12;;;;;;;38.72;29.83;;;32.70;99.90;;;;;;5022186;28;20079;-65
2023/07/28 06:06:38;;;;;;;36.33;27.92;;;32.70;99.90;;;;;;5020719;28;20058;-65
2023/07/28 06:09:05;;;;;;;41.13;28.63;;;32.70;99.90;;;;;;5023042;28;20306;-64
2023/07/28 06:11:31;;;;;;;40.75;29.20;;;32.70;99.90;;;;;;5022201;28;20030;-64
2023/07/28 06:13:58;;;;;;;34.35;25.40;;;32.70;99.90;;;;;;5021370;28;20020;-65
2023/07/28 06:16:25;;;;;;;49.28;31.30;;;32.80;99.90;;;;;;5021297;28;20026;-65
2023/07/28 06:18:51;;;;;;;51.60;33.70;;;32.70;99.90;;;;;;5022306;28;20391;-63
2023/07/28 06:21:18;;;;;;;40.90;28.27;;;32.70;99.90;;;;;;5023446;28;20136;-65
2023/07/28 06:23:44;;;;;;;39.58;27.75;;;32.60;99.90;;;;;;5026905;28;20021;-65
2023/07/28 06:26:11;;;;;;;37.63;27.35;;;32.60;99.90;;;;;;5021636;28;20106;-64
2023/07/28 06:28:38;;;;;;;35.25;26.23;;;32.60;99.90;;;;;;5019855;28;20081;-64
2023/07/28 06:31:05;;;;;;;38.45;26.42;;;32.60;99.90;;;;;;5019792;28;20591;-64
2023/07/28 06:33:32;;;;;;;38.90;28.10;;;32.60;99.90;;;;;;5020411;28;20491;-64
2023/07/28 06:35:58;;;;;;;38.72;26.83;;;32.60;99.90;;;;;;5022311;28;20075;-64
2023/07/28 06:38:25;;;;;;;35.35;26.35;;;32.60;99.90;;;;;;5023477;28;20553;-64
2023/07/28 06:40:51;;;;;;;33.13;26.10;;;32.70;99.90;;;;;;5021786;28;20066;-64
2023/07/28 06:43:19;;;;;;;38.70;26.17;;;32.70;99.90;;;;;;5022264;28;20051;-66
2023/07/28 06:45:46;;;;;;;38.55;26.38;;;32.80;99.90;;;;;;5019580;28;20106;-64
2023/07/28 06:48:12;;;;;;;30.10;23.52;;;32.80;99.90;;;;;;5012171;28;20026;-63
2023/07/28 06:50:39;;;;;;;36.40;25.30;;;32.80;99.90;;;;;;5012167;28;20030;-63
2023/07/28 06:53:06;;;;;;;40.22;26.17;;;32.90;99.90;;;;;;5012814;28;20079;-65
2023/07/28 06:55:32;;;;;;;36.08;24.50;;;32.90;99.90;;;;;;5012639;28;20465;-65
2023/07/28 06:57:59;;;;;;;39.08;25.52;;;32.90;99.90;;;;;;5012349;28;20407;-66
2023/07/28 07:00:26;;;;;;;33.95;26.25;;;33.00;99.90;;;;;;5012406;28;20037;-66
2023/07/28 07:02:52;;;;;;;38.25;26.75;;;33.00;99.90;;;;;;5012445;28;20055;-65
2023/07/28 07:05:19;;;;;;;42.50;27.52;;;33.10;99.90;;;;;;5012335;28;20022;-65
2023/07/28 07:07:45;;;;;;;39.47;27.80;;;33.10;99.90;;;;;;5012252;28;20026;-65
2023/07/28 07:10:12;;;;;;;34.13;25.88;;;33.20;99.90;;;;;;5012505;28;20035;-66
2023/07/28 07:12:38;;;;;;;40.47;26.65;;;33.20;99.90;;;;;;5012191;28;20041;-68
2023/07/28 07:15:07;;;;;;;45.17;31.58;;;33.20;99.90;;;;;;5012100;28;20540;-65
2023/07/28 07:17:33;;;;;;;57.58;34.63;;;33.20;99.90;;;;;;5012096;28;20101;-66
2023/07/28 07:20:00;;;;;;;41.38;27.65;;;33.30;99.90;;;;;;5012042;28;20026;-68
2023/07/28 07:22:28;;;;;;;35.80;26.95;;;33.20;99.90;;;;;;5012072;28;20026;-67
2023/07/28 07:24:56;;;;;;;44.38;31.83;;;33.20;99.90;;;;;;5012060;28;20026;-67
2023/07/28 07:27:24;;;;;;;36.38;27.40;;;33.20;99.90;;;;;;5011532;28;20042;-66
2023/07/28 07:29:52;;;;;;;38.90;27.92;;;33.10;99.90;;;;;;5011863;28;20391;-66
2023/07/28 07:32:18;;;;;;;34.58;24.75;;;33.10;99.90;;;;;;5011886;28;20029;-66
2023/07/28 07:34:45;;;;;;;55.95;43.92;;;33.10;99.90;;;;;;5011744;28;20032;-67
2023/07/28 07:37:12;;;;;;;121.25;86.85;;;33.10;99.90;;;;;;5011816;28;20472;-66
2023/07/28 07:39:40;;;;;;;172.07;127.65;;;33.10;99.90;;;;;;5011851;28;20472;-66
2023/07/28 07:42:09;;;;;;;123.40;89.72;;;33.20;99.90;;;;;;5011799;28;20414;-66
2023/07/28 07:44:36;;;;;;;87.72;63.67;;;33.20;99.90;;;;;;5011551;28;20037;-68
2023/07/28 07:47:14;;;;;;;101.82;74.82;;;33.30;99.90;;;;;;5011735;28;20104;-67
2023/07/28 07:49:41;;;;;;;48.05;31.80;;;33.30;99.90;;;;;;5011226;28;20050;-66
2023/07/28 07:52:11;;;;;;;38.40;27.05;;;33.40;99.90;;;;;;5013254;28;20417;-64
2023/07/28 07:54:38;;;;;;;36.25;26.60;;;33.40;99.90;;;;;;5019795;28;20086;-66
2023/07/28 07:57:05;;;;;;;32.65;24.48;;;33.30;99.90;;;;;;5021960;28;20083;-66
2023/07/28 07:59:32;;;;;;;32.92;25.00;;;33.40;99.90;;;;;;5021316;28;20032;-68
2023/07/28 08:02:02;;;;;;;34.20;24.98;;;33.50;99.90;;;;;;5025315;28;20061;-67
2023/07/28 08:04:29;;;;;;;40.72;26.83;;;33.60;99.90;;;;;;5031101;28;20041;-66
2023/07/28 08:06:55;;;;;;;50.20;37.78;;;33.60;99.90;;;;;;5031208;28;20376;-67
2023/07/28 08:09:22;;;;;;;40.65;30.63;;;33.70;99.90;;;;;;5030787;28;20029;-66
2023/07/28 08:11:49;;;;;;;42.00;28.92;;;33.70;99.90;;;;;;5030537;28;20587;-68
2023/07/28 08:14:15;;;;;;;42.05;27.27;;;33.70;99.90;;;;;;5031030;28;20021;-67
2023/07/28 08:16:42;;;;;;;38.20;26.88;;;33.60;99.90;;;;;;5031224;28;20092;-67
2023/07/28 08:19:09;;;;;;;37.95;26.85;;;33.40;99.90;;;;;;5030731;28;20017;-67
2023/07/28 08:21:36;;;;;;;36.20;26.13;;;33.30;99.90;;;;;;5030777;28;20021;-66
2023/07/28 08:24:04;;;;;;;60.20;36.17;;;33.20;99.90;;;;;;5030339;28;20399;-67
2023/07/28 08:26:31;;;;;;;57.05;41.50;;;33.10;99.90;;;;;;5030497;28;20037;-67
2023/07/28 08:28:57;;;;;;;43.22;33.28;;;33.00;99.90;;;;;;5030568;28;20512;-67
2023/07/28 08:31:24;;;;;;;58.53;44.28;;;33.00;99.90;;;;;;5030594;28;20045;-72
2023/07/28 08:33:50;;;;;;;41.47;29.90;;;33.00;99.90;;;;;;5030403;28;20017;-67
2023/07/28 08:36:17;;;;;;;36.88;24.02;;;32.90;99.90;;;;;;5030687;28;20027;-67
2023/07/28 08:38:45;;;;;;;41.50;25.20;;;32.90;99.90;;;;;;5030518;28;20029;-68
2023/07/28 08:41:12;;;;;;;37.25;25.52;;;32.80;99.90;;;;;;5030460;28;20022;-67
2023/07/28 08:43:39;;;;;;;55.67;34.38;;;32.80;99.90;;;;;;5030614;28;20532;-68
2023/07/28 08:46:05;;;;;;;37.30;26.63;;;32.70;99.90;;;;;;5030648;28;20386;-68
2023/07/28 08:48:32;;;;;;;38.33;24.60;;;32.60;99.90;;;;;;5030372;28;20065;-68
2023/07/28 08:50:59;;;;;;;38.65;25.20;;;32.60;99.90;;;;;;5026958;28;20026;-69
2023/07/28 08:53:25;;;;;;;42.67;29.23;;;32.60;99.90;;;;;;5023065;28;20368;-68
2023/07/28 08:55:52;;;;;;;42.00;27.00;;;32.60;99.90;;;;;;5023014;28;20479;-69
2023/07/28 08:58:23;;;;;;;45.45;31.35;;;32.60;99.90;;;;;;5020098;28;20068;-69
2023/07/28 09:00:52;;;;;;;48.70;34.25;;;32.50;99.90;;;;;;5019910;28;20026;-67
2023/07/28 09:03:21;;;;;;;51.35;34.08;;;32.50;99.90;;;;;;5020440;28;20387;-67
2023/07/28 09:05:47;;;;;;;65.03;34.97;;;32.40;99.90;;;;;;5020182;28;20472;-69
2023/07/28 09:08:15;;;;;;;43.70;27.33;;;32.40;99.90;;;;;;5018875;28;20061;-69
2023/07/28 09:10:42;;;;;;;38.53;25.60;;;32.40;99.90;;;;;;5019014;28;20079;-65
2023/07/28 09:13:13;;;;;;;35.38;25.05;;;32.20;99.90;;;;;;5017488;28;20018;-66
2023/07/28 09:15:40;;;;;;;48.80;27.70;;;31.90;99.90;;;;;;5011913;28;20030;-65
2023/07/28 09:18:12;;;;;;;45.72;25.75;;;31.80;99.90;;;;;;5019950;28;20121;-68
2023/07/28 09:20:43;;;;;;;135.35;95.57;;;31.60;99.90;;;;;;5019867;28;20498;-67
2023/07/28 09:23:13;;;;;;;40.88;24.95;;;31.30;99.90;;;;;;5020065;28;20092;-67
2023/07/28 09:25:39;;;;;;;44.80;25.58;;;31.10;99.90;;;;;;5020402;28;20173;-67
2023/07/28 09:28:06;;;;;;;72.57;45.35;;;30.90;99.90;;;;;;5018795;28;20026;-66
2023/07/28 09:30:49;;;;;;;46.97;27.63;;;30.80;99.90;;;;;;5018604;28;20086;-66
2023/07/28 09:33:36;;;;;;;61.50;41.63;;;30.70;99.90;;;;;;5021628;28;20022;-65
2023/07/28 09:36:16;;;;;;;57.42;40.60;;;30.60;99.90;;;;;;5023112;28;20030;-68
2023/07/28 09:38:43;;;;;;;108.35;70.60;;;30.70;99.90;;;;;;5024506;28;20483;-65
2023/07/28 09:41:11;;;;;;;118.90;86.78;;;30.70;99.90;;;;;;5021140;28;20025;-68
2023/07/28 09:43:39;;;;;;;60.25;38.85;;;30.70;99.90;;;;;;5017790;28;20033;-66
2023/07/28 09:46:08;;;;;;;44.65;31.23;;;30.70;99.90;;;;;;5021636;28;20395;-65
2023/07/28 09:48:37;;;;;;;51.42;30.25;;;30.80;99.90;;;;;;5017358;28;20026;-65
2023/07/28 09:51:12;;;;;;;51.42;36.95;;;30.80;99.90;;;;;;5024944;28;21281;-66
2023/07/28 09:53:47;;;;;;;48.38;33.22;;;30.80;99.90;;;;;;5023647;28;20075;-66
2023/07/28 09:56:18;;;;;;;44.22;30.17;;;30.80;99.90;;;;;;5024187;28;20082;-64
2023/07/28 09:58:51;;;;;;;52.38;37.38;;;30.80;99.90;;;;;;5018852;28;20025;-64
2023/07/28 10:01:19;;;;;;;47.22;31.88;;;30.90;99.90;;;;;;5021815;28;20029;-66
2023/07/28 10:03:47;;;;;;;46.53;32.65;;;30.90;99.90;;;;;;5025925;28;20022;-64
2023/07/28 10:06:14;;;;;;;48.83;31.40;;;30.90;99.90;;;;;;5027987;28;20113;-67
2023/07/28 10:08:41;;;;;;;42.53;28.65;;;30.90;99.90;;;;;;5025840;28;20506;-65
2023/07/28 10:11:11;;;;;;;42.47;30.42;;;30.90;99.90;;;;;;5026157;28;20048;-65
2023/07/28 10:13:42;;;;;;;43.55;30.05;;;30.90;99.90;;;;;;5027761;28;20026;-65
2023/07/28 10:16:09;;;;;;;47.33;32.55;;;30.90;99.90;;;;;;5025806;28;20026;-66
2023/07/28 10:18:36;;;;;;;55.47;38.10;;;30.90;99.90;;;;;;5029766;28;20357;-65
2023/07/28 10:21:09;;;;;;;50.17;34.75;;;30.90;99.90;;;;;;5026877;28;20100;-67
2023/07/28 10:23:37;;;;;;;53.63;34.22;;;30.80;99.90;;;;;;5022303;28;20034;-66
2023/07/28 10:26:05;;;;;;;37.97;30.25;;;30.80;99.90;;;;;;5022674;28;20436;-64
2023/07/28 10:28:46;;;;;;;41.72;28.50;;;30.80;99.90;;;;;;5023823;28;20388;-63
2023/07/28 10:31:13;;;;;;;47.00;28.45;;;30.70;99.90;;;;;;5024246;28;20077;-65
2023/07/28 10:33:44;;;;;;;42.33;29.45;;;30.60;99.90;;;;;;5022820;28;20026;-63
2023/07/28 10:36:30;;;;;;;44.45;29.25;;;30.50;99.90;;;;;;5025416;28;20025;-64
2023/07/28 10:39:22;;;;;;;50.58;32.40;;;30.40;99.90;;;;;;5022317;28;20487;-63
2023/07/28 10:42:08;;;;;;;44.47;29.58;;;30.30;99.90;;;;;;5025591;28;20522;-64
2023/07/28 10:44:35;;;;;;;52.38;30.38;;;30.10;99.90;;;;;;5019775;28;20022;-62
2023/07/28 10:47:02;;;;;;;62.60;35.20;;;29.90;99.90;;;;;;5021471;28;20026;-63
2023/07/28 10:49:29;;;;;;;71.75;37.75;;;29.70;99.90;;;;;;5026899;28;20014;-63
2023/07/28 10:51:56;;;;;;;54.53;32.45;;;29.60;99.90;;;;;;5022074;28;20550;-63
2023/07/28 10:54:22;;;;;;;51.40;33.10;;;29.40;99.90;;;;;;5022802;28;20048;-64
2023/07/28 10:56:49;;;;;;;54.60;34.75;;;29.40;99.90;;;;;;5021973;28;20026;-63
2023/07/28 10:59:16;;;;;;;57.97;34.53;;;29.50;99.90;;;;;;5022039;28;20021;-61
2023/07/28 11:01:44;;;;;;;55.22;35.65;;;29.50;99.90;;;;;;5026369;28;20021;-63
2023/07/28 11:04:10;;;;;;;48.88;32.20;;;29.40;99.90;;;;;;5022555;28;20028;-63
2023/07/28 11:06:49;;;;;;;45.03;32.10;;;29.30;99.90;;;;;;5024717;28;20033;-64
2023/07/28 11:09:18;;;;;;;43.75;30.92;;;29.30;99.90;;;;;;5023680;28;20030;-64
2023/07/28 11:11:46;;;;;;;47.15;30.13;;;29.30;99.90;;;;;;5024845;28;20444;-63
2023/07/28 11:14:14;;;;;;;44.22;30.50;;;29.30;99.90;;;;;;5022821;28;20024;-63
2023/07/28 11:16:41;;;;;;;36.72;26.33;;;29.20;99.90;;;;;;5024256;28;20030;-63
2023/07/28 11:19:18;;;;;;;40.78;28.13;;;29.20;99.90;;;;;;5017537;28;20026;-64
2023/07/28 11:21:50;;;;;;;30.75;22.73;;;29.20;99.90;;;;;;5025003;28;20030;-64
2023/07/28 11:24:20;;;;;;;26.25;19.88;;;29.10;99.90;;;;;;5020950;28;20026;-64
2023/07/28 11:26:47;;;;;;;23.92;17.42;;;29.00;99.90;;;;;;5025860;28;20521;-64
2023/07/28 11:29:13;;;;;;;22.83;16.48;;;29.10;99.90;;;;;;5019399;28;20113;-62
2023/07/28 11:31:42;;;;;;;24.85;16.95;;;29.20;99.90;;;;;;5025132;28;20061;-64
2023/07/28 11:34:18;;;;;;;25.92;19.02;;;29.00;99.90;;;;;;5025379;28;20026;-64
2023/07/28 11:36:45;;;;;;;26.25;19.75;;;29.00;99.90;;;;;;5027959;28;20505;-64
2023/07/28 11:39:12;;;;;;;27.75;20.50;;;29.10;99.90;;;;;;5022164;28;20485;-64
2023/07/28 11:41:40;;;;;;;29.05;22.25;;;29.10;99.90;;;;;;5025841;28;20042;-65
2023/07/28 11:44:07;;;;;;;30.58;22.05;;;29.00;99.90;;;;;;5027107;28;20539;-64
2023/07/28 11:46:41;;;;;;;32.08;23.60;;;29.00;99.90;;;;;;5024877;28;20040;-64
2023/07/28 11:49:16;;;;;;;39.83;25.10;;;29.00;99.90;;;;;;5022588;28;20038;-63
2023/07/28 11:51:45;;;;;;;36.10;26.75;;;29.00;99.90;;;;;;5023163;28;20033;-62
2023/07/28 11:54:22;;;;;;;38.22;27.65;;;29.00;99.90;;;;;;5017781;28;20037;-64
2023/07/28 11:56:50;;;;;;;38.13;28.52;;;29.00;99.90;;;;;;5025437;28;20428;-63
2023/07/28 11:59:18;;;;;;;42.33;29.60;;;29.00;99.90;;;;;;5021610;28;20070;-64
2023/07/28 12:02:04;;;;;;;52.15;34.60;;;29.00;99.90;;;;;;5027714;28;20111;-65
2023/07/28 12:04:33;;;;;;;53.70;36.65;;;29.00;99.90;;;;;;5020886;28;20109;-64
2023/07/28 12:07:07;;;;;;;49.00;34.42;;;29.00;99.90;;;;;;5027401;28;20482;-64
2023/07/28 12:10:08;;;;;;;49.88;37.22;;;29.00;99.90;;;;;;5026162;28;20083;-62
2023/07/28 12:12:45;;;;;;;45.58;33.75;;;29.00;99.90;;;;;;5028400;28;20037;-63
2023/07/28 12:15:29;;;;;;;46.75;33.13;;;28.90;99.90;;;;;;5021922;28;20057;-64
2023/07/28 12:18:08;;;;;;;56.60;38.90;;;28.90;99.90;;;;;;5021947;28;20024;-63
2023/07/28 12:20:47;;;;;;;52.92;38.67;;;28.90;99.90;;;;;;5026342;28;20198;-63
2023/07/28 12:23:15;;;;;;;70.35;49.63;;;28.90;99.90;;;;;;5022440;28;20025;-62
2023/07/28 12:25:43;;;;;;;44.95;31.95;;;28.80;99.90;;;;;;5023582;28;20044;-64
2023/07/28 12:28:10;;;;;;;46.38;34.22;;;28.80;99.90;;;;;;5037052;27;20112;-64
2023/07/28 12:30:37;;;;;;;42.90;30.25;;;28.80;99.90;;;;;;5023093;28;20526;-64